Airfield :
LOGIN :

Register | Disclaimer

   EN    FR    IT 

 










Legend :    VFR   Marginal VFR   IFR   Intensive IFR   Very Intensive IFR
Visi :
Ceiling :
>= 8 km
>= 3000ft
5 to 8 km
1000 to 3000 ft
1500m to 5 km
500 to 1000 ft
800 to 1500m
200 to 500 ft
< 800m
< 200 ft
Symbols :   Thunderstorms  Fog  Heavy snow  Heavy precipitations  Wind > 20 kt
SIGMETs :     Misc.  Thunderstorms  Icing  Turbulence  Mountain Waves  Volcanic Ashes






- Airport Elevation : 36 ft
- IATA code : LTQ


LFAT - Le Touquet

CURRENT METAR :
  • 292000Z AUTO 24012G23KT 210V280 9999 FEW035 OVC047 15/13 Q1017

EXPIRED METARs :
  • 291930Z AUTO 24011KT 200V270 9999 FEW017 SCT032 OVC043 15/13 Q1017
  • 291900Z AUTO 23010G21KT 200V270 9999 BKN017/// BKN023/// BKN046/// ///TCU 15/13 Q1017
  • 291830Z AUTO 23008KT 200V260 9999 FEW010 OVC018 14/13 Q1016
  • 291800Z AUTO 23011KT 200V260 9999 -RA BKN012 BKN017 BKN041 14/13 Q1016 TEMPO 3000 DZRA OVC020
  • 291730Z AUTO 23014KT 200V260 9999 BKN011 BKN044 OVC052 14/13 Q1016 TEMPO 3000 DZRA OVC020

TAF AMD TAF LFAT
Valid from the 29 at 17:00 until the 30 at 00:00 UTC


291704Z 2917/2924 22013KT 9999 OVC012
PROB40
TEMPO 2917/2919 3000 DZRA OVC007
TEMPO 2919/2924 OVC020
ATIS : +33 3 21 06 62 84



MET'MAP, your aeronautical weather chart ! - Copyright ORBIFLY December 2007 - Disclaimer

ORBIFLY MET'MAP TEAM :

Programming & Development : Alexandra Zaïnal
Concept & original design : Baudouin d'Aumeries
Assistance for programming : Marc-Olivier Méhu
Technical & hardware support : Manuel Goepfert

Contact : metmap@orbifly.com




SOURCES & CREDITS :

   NOAA